createdAt,value
2019-01-30T00:00:02.523Z,3.4
2019-01-30T00:00:52.753Z,3.4
2019-01-30T00:01:42.535Z,3.5
2019-01-30T00:02:32.922Z,3.5
2019-01-30T00:03:23.205Z,3.5
2019-01-30T00:04:13.066Z,3.4
2019-01-30T00:05:03.053Z,3.5
2019-01-30T00:05:52.825Z,3.6
2019-01-30T00:06:42.874Z,3.6
2019-01-30T00:07:33.228Z,3.6
2019-01-30T00:08:22.995Z,3.6
2019-01-30T00:09:13.610Z,3.6
2019-01-30T00:10:03.663Z,3.6
2019-01-30T00:10:53.455Z,3.6
2019-01-30T00:11:43.502Z,3.6
2019-01-30T00:12:33.552Z,3.6
2019-01-30T00:13:23.899Z,3.6
2019-01-30T00:14:14.003Z,3.6
2019-01-30T00:15:03.180Z,3.6
2019-01-30T00:15:59.629Z,3.5
2019-01-30T00:16:43.829Z,3.5
2019-01-30T00:17:33.624Z,3.5
2019-01-30T00:18:24.236Z,3.5
2019-01-30T00:19:13.732Z,3.5
2019-01-30T00:20:04.084Z,3.5
2019-01-30T00:20:53.859Z,3.5
2019-01-30T00:21:43.906Z,3.5
2019-01-30T00:22:34.519Z,3.4
2019-01-30T00:23:24.021Z,3.4
2019-01-30T00:24:14.632Z,3.4
2019-01-30T00:25:04.424Z,3.4
2019-01-30T00:25:54.765Z,3.4
2019-01-30T00:26:44.823Z,3.4
2019-01-30T00:27:34.608Z,3.4
2019-01-30T00:28:24.932Z,3.4
2019-01-30T00:29:15.057Z,3.5
2019-01-30T00:30:06.992Z,3.5
2019-01-30T00:30:55.146Z,3.4
2019-01-30T00:31:45.154Z,3.4
2019-01-30T00:32:34.681Z,3.5
2019-01-30T00:33:24.993Z,3.5
2019-01-30T00:34:15.063Z,3.5
2019-01-30T00:35:04.831Z,3.5
2019-01-30T00:35:55.251Z,3.4
2019-01-30T00:36:44.676Z,3.4
2019-01-30T00:37:35.553Z,3.4
2019-01-30T00:38:25.629Z,3.4
2019-01-30T00:39:15.393Z,3.4
2019-01-30T00:40:05.748Z,3.4
2019-01-30T00:40:55.588Z,3.4
2019-01-30T00:41:45.020Z,3.4
2019-01-30T00:42:35.623Z,3.4
2019-01-30T00:43:25.691Z,3.4
2019-01-30T00:44:15.730Z,3.4
2019-01-30T00:45:05.526Z,3.4
2019-01-30T00:45:55.588Z,3.4
2019-01-30T00:46:45.965Z,3.4
2019-01-30T00:47:37.958Z,3.4
2019-01-30T00:48:26.302Z,3.4
2019-01-30T00:49:16.419Z,3.4
2019-01-30T00:50:06.138Z,3.4
2019-01-30T00:50:56.195Z,3.3
2019-01-30T00:51:45.985Z,3.3
2019-01-30T00:52:36.320Z,3.3
2019-01-30T00:53:26.652Z,3.3
2019-01-30T00:54:16.159Z,3.3
2019-01-30T00:55:06.488Z,3.4
2019-01-30T00:55:56.559Z,3.4
2019-01-30T00:56:46.875Z,3.4
2019-01-30T00:57:36.935Z,3.4
2019-01-30T00:58:26.451Z,3.4
2019-01-30T00:59:16.779Z,3.4
2019-01-30T01:00:16.768Z,3.4
2019-01-30T01:00:58.866Z,3.4
2019-01-30T01:01:46.947Z,3.4
2019-01-30T01:02:37.016Z,3.4
2019-01-30T01:03:26.825Z,3.4
2019-01-30T01:04:17.396Z,3.6
2019-01-30T01:05:07.167Z,3.6
2019-01-30T01:05:57.515Z,3.6
2019-01-30T01:06:47.583Z,3.6
2019-01-30T01:07:37.378Z,3.5
2019-01-30T01:08:27.404Z,3.4
2019-01-30T01:09:17.781Z,3.4
2019-01-30T01:10:07.018Z,3.4
2019-01-30T01:10:57.573Z,3.4
2019-01-30T01:11:47.666Z,3.4
2019-01-30T01:12:37.693Z,3.5
2019-01-30T01:13:27.251Z,3.5
2019-01-30T01:14:17.539Z,3.5
2019-01-30T01:15:07.866Z,3.6
2019-01-30T01:15:57.936Z,3.6
2019-01-30T01:16:48.256Z,3.6
2019-01-30T01:17:38.304Z,3.6
2019-01-30T01:18:27.619Z,3.6
2019-01-30T01:19:18.200Z,3.6
2019-01-30T01:20:08.483Z,3.5
2019-01-30T01:20:58.569Z,3.4
2019-01-30T01:21:48.323Z,3.4
2019-01-30T01:22:37.925Z,3.4
2019-01-30T01:23:28.838Z,3.4
2019-01-30T01:24:18.501Z,3.5
2019-01-30T01:25:08.562Z,3.5
2019-01-30T01:25:58.892Z,3.5
2019-01-30T01:26:48.668Z,3.5
2019-01-30T01:27:39.002Z,3.5
2019-01-30T01:28:28.780Z,3.5
2019-01-30T01:29:19.108Z,3.5
2019-01-30T01:30:08.897Z,3.5
2019-01-30T01:30:58.687Z,3.5
2019-01-30T01:31:49.100Z,3.5
2019-01-30T01:32:38.812Z,3.6
2019-01-30T01:33:29.454Z,3.6
2019-01-30T01:34:19.186Z,3.6
2019-01-30T01:35:09.253Z,3.6
2019-01-30T01:35:59.024Z,3.6
2019-01-30T01:36:49.084Z,3.6
2019-01-30T01:37:39.425Z,3.5
2019-01-30T01:38:29.749Z,3.5
2019-01-30T01:39:19.536Z,3.4
2019-01-30T01:40:09.624Z,3.5
2019-01-30T01:40:59.922Z,3.5
2019-01-30T01:41:49.992Z,3.5
2019-01-30T01:42:40.044Z,3.5
2019-01-30T01:43:29.820Z,3.5
2019-01-30T01:44:19.897Z,3.5
2019-01-30T01:45:09.937Z,3.4
2019-01-30T01:46:00.010Z,3.5
2019-01-30T01:46:49.774Z,3.5
2019-01-30T01:47:40.116Z,3.5
2019-01-30T01:48:30.449Z,3.6
2019-01-30T01:49:20.516Z,3.6
2019-01-30T01:50:10.286Z,3.6
2019-01-30T01:51:00.614Z,3.6
2019-01-30T01:51:50.666Z,3.5
2019-01-30T01:52:40.457Z,3.5
2019-01-30T01:53:30.236Z,3.4
2019-01-30T01:54:20.563Z,3.4
2019-01-30T01:55:10.621Z,3.4
2019-01-30T01:56:00.676Z,3.4
2019-01-30T01:56:51.028Z,3.4
2019-01-30T01:57:40.819Z,3.4
2019-01-30T01:58:30.848Z,3.4
2019-01-30T01:59:20.905Z,3.4
2019-01-30T02:00:10.983Z,3.4
2019-01-30T02:01:01.321Z,3.4
2019-01-30T02:01:51.363Z,3.3
2019-01-30T02:02:41.420Z,3.3
2019-01-30T02:03:31.483Z,3.3
2019-01-30T02:04:21.540Z,3.3
2019-01-30T02:05:11.611Z,3.2
2019-01-30T02:06:01.101Z,3.2
2019-01-30T02:06:51.434Z,3.2
2019-01-30T02:07:41.218Z,3.1
2019-01-30T02:08:31.557Z,3.1
2019-01-30T02:09:21.888Z,3.1
2019-01-30T02:10:11.106Z,3.2
2019-01-30T02:11:01.725Z,3.2
2019-01-30T02:11:52.033Z,3.3
2019-01-30T02:12:41.844Z,3.4
2019-01-30T02:13:31.885Z,3.4
2019-01-30T02:14:21.949Z,3.4
2019-01-30T02:15:12.287Z,3.4
2019-01-30T02:16:01.795Z,3.3
2019-01-30T02:16:52.392Z,3.1
2019-01-30T02:17:42.194Z,3.2
2019-01-30T02:18:32.513Z,3.2
2019-01-30T02:19:22.669Z,3.3
2019-01-30T02:20:12.182Z,3.3
2019-01-30T02:21:02.420Z,3.3
2019-01-30T02:21:52.737Z,3.3
2019-01-30T02:22:42.524Z,3.4
2019-01-30T02:23:32.674Z,3.4
2019-01-30T02:24:22.646Z,3.3
2019-01-30T02:25:12.696Z,3.3
2019-01-30T02:26:02.754Z,3.2
2019-01-30T02:26:52.533Z,3.1
2019-01-30T02:27:43.141Z,3.1
2019-01-30T02:28:33.198Z,3.1
2019-01-30T02:29:23.261Z,3
2019-01-30T02:30:13.067Z,2.9
2019-01-30T02:31:02.597Z,2.9
2019-01-30T02:31:53.454Z,2.9
2019-01-30T02:32:43.503Z,2.9
2019-01-30T02:33:33.563Z,2.9
2019-01-30T02:34:23.064Z,2.8
2019-01-30T02:35:13.421Z,2.8
2019-01-30T02:36:03.173Z,2.8
2019-01-30T02:36:53.811Z,2.7
2019-01-30T02:37:43.852Z,2.7
2019-01-30T02:38:33.719Z,2.6
2019-01-30T02:39:23.676Z,2.6
2019-01-30T02:40:14.057Z,2.6
2019-01-30T02:41:03.801Z,2.5
2019-01-30T02:41:53.915Z,2.4
2019-01-30T02:42:43.958Z,2.5
2019-01-30T02:43:34.263Z,2.5
2019-01-30T02:44:24.018Z,2.4
2019-01-30T02:45:14.395Z,2.4
2019-01-30T02:46:04.190Z,2.4
2019-01-30T02:46:53.920Z,2.4
2019-01-30T02:47:43.980Z,2.5
2019-01-30T02:48:34.175Z,2.4
2019-01-30T02:49:23.820Z,2.4
2019-01-30T02:50:13.875Z,2.4
2019-01-30T02:51:04.488Z,2.4
2019-01-30T02:51:54.823Z,2.4
2019-01-30T02:52:43.835Z,2.4
2019-01-30T02:53:34.787Z,2.5
2019-01-30T02:54:24.460Z,2.4
2019-01-30T02:55:14.489Z,2.5
2019-01-30T02:56:04.867Z,2.6
2019-01-30T02:56:54.880Z,2.6
2019-01-30T02:57:45.279Z,2.6
2019-01-30T02:58:35.262Z,2.5
2019-01-30T02:59:25.098Z,2.5
2019-01-30T03:00:15.535Z,2.5
2019-01-30T03:01:04.639Z,2.6
2019-01-30T03:01:54.932Z,2.6
2019-01-30T03:02:45.549Z,2.6
2019-01-30T03:03:35.356Z,2.6
2019-01-30T03:04:25.113Z,2.6
2019-01-30T03:05:15.861Z,2.5
2019-01-30T03:08:27.050Z,2.4
2019-01-30T03:09:16.789Z,2.3
2019-01-30T03:10:07.108Z,2.3
2019-01-30T03:10:56.903Z,2.3
2019-01-30T03:11:47.246Z,2.3
2019-01-30T03:12:37.313Z,2.2
2019-01-30T03:13:27.142Z,2.2
2019-01-30T03:14:17.411Z,2.4
2019-01-30T03:15:07.171Z,2.4
2019-01-30T03:15:57.238Z,2.4
2019-01-30T03:16:47.648Z,2.5
2019-01-30T03:17:37.648Z,2.5
2019-01-30T03:18:27.698Z,2.8
2019-01-30T03:19:17.196Z,2.8
2019-01-30T03:20:07.828Z,2.9
2019-01-30T03:20:57.850Z,3
2019-01-30T03:21:47.924Z,3.1
2019-01-30T03:22:37.958Z,3.1
2019-01-30T03:23:27.760Z,3.3
2019-01-30T03:24:17.803Z,3.3
2019-01-30T03:25:08.135Z,3.3
2019-01-30T03:25:58.206Z,3.3
2019-01-30T03:26:47.820Z,3.2
2019-01-30T03:27:38.325Z,3.2
2019-01-30T03:28:28.085Z,3.2
2019-01-30T03:29:18.170Z,3.3
2019-01-30T03:30:08.236Z,3.4
2019-01-30T03:30:58.334Z,3.5
2019-01-30T03:31:48.647Z,3.6
2019-01-30T03:32:38.738Z,3.6
2019-01-30T03:33:28.533Z,3.7
2019-01-30T03:34:18.525Z,3.8
2019-01-30T03:35:08.554Z,3.8
2019-01-30T03:35:58.874Z,3.9
2019-01-30T03:36:48.934Z,3.8
2019-01-30T03:37:38.434Z,3.8
2019-01-30T03:38:28.530Z,3.8
2019-01-30T03:39:18.822Z,3.8
2019-01-30T03:40:08.600Z,3.7
2019-01-30T03:40:58.942Z,3.8
2019-01-30T03:41:48.994Z,3.8
2019-01-30T03:42:39.357Z,3.8
2019-01-30T03:43:29.414Z,3.8
2019-01-30T03:44:19.186Z,3.8
2019-01-30T03:45:09.262Z,3.8
2019-01-30T03:45:59.564Z,3.8
2019-01-30T03:46:48.806Z,3.8
2019-01-30T03:47:39.678Z,3.8
2019-01-30T03:48:29.184Z,3.7
2019-01-30T03:49:19.821Z,3.7
2019-01-30T03:50:09.836Z,3.7
2019-01-30T03:50:59.358Z,3.6
2019-01-30T03:51:49.988Z,3.6
2019-01-30T03:52:40.008Z,3.6
2019-01-30T03:53:29.516Z,3.6
2019-01-30T03:54:19.861Z,3.6
2019-01-30T03:55:09.925Z,3.6
2019-01-30T03:55:59.417Z,3.7
2019-01-30T03:56:50.029Z,3.7
2019-01-30T03:57:40.392Z,3.6
2019-01-30T03:58:30.161Z,3.6
2019-01-30T03:59:19.935Z,3.6
2019-01-30T04:00:10.534Z,3.6
2019-01-30T04:01:00.618Z,3.6
2019-01-30T04:01:50.666Z,3.6
2019-01-30T04:02:40.698Z,3.5
2019-01-30T04:03:30.761Z,3.6
2019-01-30T04:04:20.828Z,3.6
2019-01-30T04:05:10.885Z,3.6
2019-01-30T04:06:00.932Z,3.5
2019-01-30T04:06:50.838Z,3.5
2019-01-30T04:07:40.776Z,3.5
2019-01-30T04:08:30.545Z,3.4
2019-01-30T04:09:21.167Z,3.4
2019-01-30T04:10:10.987Z,3.4
2019-01-30T04:11:01.340Z,3.4
2019-01-30T04:11:51.330Z,3.4
2019-01-30T04:12:41.395Z,3.4
2019-01-30T04:13:31.163Z,3.4
2019-01-30T04:14:21.237Z,3.4
2019-01-30T04:15:11.289Z,3.3
2019-01-30T04:16:01.612Z,3.3
2019-01-30T04:16:51.680Z,3.3
2019-01-30T04:17:41.788Z,3.3
2019-01-30T04:18:31.789Z,3.3
2019-01-30T04:19:21.559Z,3.3
2019-01-30T04:20:11.393Z,3.3
2019-01-30T04:21:01.677Z,3.2
2019-01-30T04:21:52.039Z,3.3
2019-01-30T04:22:42.084Z,3.3
2019-01-30T04:23:32.137Z,3.3
2019-01-30T04:24:22.195Z,3.3
2019-01-30T04:25:12.438Z,3.3
2019-01-30T04:26:02.179Z,3.3
2019-01-30T04:26:52.394Z,3.3
2019-01-30T04:27:41.923Z,3.2
2019-01-30T04:28:32.494Z,3.2
2019-01-30T04:29:22.689Z,3.2
2019-01-30T04:30:12.599Z,3.2
2019-01-30T04:31:02.648Z,3.2
2019-01-30T04:31:52.746Z,3.2
2019-01-30T04:32:42.208Z,3.2
2019-01-30T04:33:32.543Z,3.1
2019-01-30T04:34:22.913Z,3.1
2019-01-30T04:35:12.956Z,3.1
2019-01-30T04:36:02.453Z,3.2
2019-01-30T04:36:52.768Z,3.1
2019-01-30T04:37:43.100Z,3.1
2019-01-30T04:38:32.893Z,3.1
2019-01-30T04:39:23.313Z,3.1
2019-01-30T04:40:13.003Z,3.1
2019-01-30T04:41:03.066Z,3.1
2019-01-30T04:41:53.103Z,3.1
2019-01-30T04:42:43.183Z,3.1
2019-01-30T04:43:33.522Z,3.1
2019-01-30T04:44:23.571Z,3.1
2019-01-30T04:45:13.340Z,3.1
2019-01-30T04:46:03.694Z,3.1
2019-01-30T04:46:53.457Z,3.1
2019-01-30T04:47:43.330Z,3.1
2019-01-30T04:48:33.582Z,3.1
2019-01-30T04:49:23.900Z,3.1
2019-01-30T04:50:13.960Z,3.1
2019-01-30T04:51:04.045Z,3.1
2019-01-30T04:51:54.064Z,3.1
2019-01-30T04:52:43.605Z,3.1
2019-01-30T04:53:33.916Z,3.1
2019-01-30T04:54:23.967Z,3.1
2019-01-30T04:55:14.294Z,3.1
2019-01-30T04:56:04.268Z,3.1
2019-01-30T04:56:53.856Z,3.1
2019-01-30T04:57:44.489Z,3.1
2019-01-30T04:58:34.282Z,3.1
2019-01-30T04:59:24.316Z,3.1
2019-01-30T05:00:14.663Z,3.1
2019-01-30T05:01:04.684Z,3.1
2019-01-30T05:01:54.497Z,3.1
2019-01-30T05:02:44.820Z,3.1
2019-01-30T05:03:34.322Z,3
2019-01-30T05:04:24.404Z,3
2019-01-30T05:05:15.067Z,3
2019-01-30T05:06:04.484Z,3
2019-01-30T05:06:55.114Z,3
2019-01-30T05:07:44.884Z,3.1
2019-01-30T05:08:34.668Z,3.1
2019-01-30T05:09:25.288Z,3.1
2019-01-30T05:10:15.353Z,3
2019-01-30T05:11:05.386Z,3
2019-01-30T05:11:55.178Z,3
2019-01-30T05:12:45.245Z,3
2019-01-30T05:13:35.640Z,3
2019-01-30T05:14:25.333Z,3
2019-01-30T05:15:15.696Z,3.1
2019-01-30T05:16:05.789Z,3
2019-01-30T05:16:55.515Z,3
2019-01-30T05:17:45.275Z,2.9
2019-01-30T05:18:35.649Z,2.9
2019-01-30T05:19:25.788Z,2.9
2019-01-30T05:20:15.782Z,3
2019-01-30T05:21:05.790Z,3
2019-01-30T05:21:56.127Z,3.1
2019-01-30T05:22:45.938Z,3
2019-01-30T05:23:36.383Z,2.9
2019-01-30T05:24:26.043Z,2.9
2019-01-30T05:25:16.108Z,2.9
2019-01-30T05:26:06.160Z,2.9
2019-01-30T05:26:56.457Z,2.9
2019-01-30T05:27:46.233Z,2.9
2019-01-30T05:28:36.572Z,2.9
2019-01-30T05:29:26.655Z,3
2019-01-30T05:30:16.139Z,3
2019-01-30T05:31:06.467Z,3
2019-01-30T05:32:03.909Z,3
2019-01-30T05:32:46.568Z,2.9
2019-01-30T05:33:36.639Z,2.9
2019-01-30T05:34:26.990Z,2.9
2019-01-30T05:35:16.839Z,2.9
2019-01-30T05:36:07.092Z,2.9
2019-01-30T05:36:57.150Z,2.9
2019-01-30T05:37:46.913Z,2.9
2019-01-30T05:38:37.301Z,2.9
2019-01-30T05:39:27.357Z,2.9
2019-01-30T05:40:17.388Z,2.9
2019-01-30T05:41:07.465Z,2.9
2019-01-30T05:41:56.914Z,2.9
2019-01-30T05:42:47.276Z,3
2019-01-30T05:43:37.601Z,3
2019-01-30T05:44:27.718Z,3
2019-01-30T05:45:17.696Z,3
2019-01-30T05:46:07.768Z,3
2019-01-30T05:46:57.846Z,3
2019-01-30T05:47:47.756Z,3
2019-01-30T05:48:37.685Z,3
2019-01-30T05:49:30.684Z,3
2019-01-30T05:50:18.056Z,3
2019-01-30T05:51:07.595Z,3.1
2019-01-30T05:51:58.143Z,3.1
2019-01-30T05:52:47.978Z,3.1
2019-01-30T05:53:38.270Z,3
2019-01-30T05:54:28.338Z,3
2019-01-30T05:55:18.112Z,3
2019-01-30T05:56:08.463Z,2.9
2019-01-30T05:56:58.523Z,2.9
2019-01-30T05:57:48.609Z,3
2019-01-30T05:58:38.426Z,3.1
2019-01-30T05:59:28.177Z,3.1
2019-01-30T06:00:18.730Z,3.1
2019-01-30T06:01:08.787Z,3.1
2019-01-30T06:01:58.825Z,3.1
2019-01-30T06:02:48.889Z,3.1
2019-01-30T06:03:38.987Z,3.1
2019-01-30T06:04:29.017Z,3.1
2019-01-30T06:06:26.302Z,3.2
2019-01-30T06:07:16.330Z,3.2
2019-01-30T06:08:06.712Z,3.1
2019-01-30T06:08:56.710Z,3.2
2019-01-30T06:09:47.052Z,3.2
2019-01-30T06:10:36.817Z,3.2
2019-01-30T06:11:26.897Z,3.2
2019-01-30T06:12:16.948Z,3.2
2019-01-30T06:13:07.281Z,3.2
2019-01-30T06:13:57.057Z,3.3
2019-01-30T06:14:46.891Z,3.3
2019-01-30T06:15:37.447Z,3.3
2019-01-30T06:16:27.501Z,3.4
2019-01-30T06:17:17.021Z,3.3
2019-01-30T06:18:07.372Z,3.4
2019-01-30T06:18:57.402Z,3.4
2019-01-30T06:19:47.436Z,3.4
2019-01-30T06:20:37.589Z,3.3
2019-01-30T06:21:27.558Z,3.3
2019-01-30T06:22:17.358Z,3.4
2019-01-30T06:23:07.729Z,3.4
2019-01-30T06:23:58.041Z,3.3
2019-01-30T06:24:48.114Z,3.4
2019-01-30T06:25:38.231Z,3.4
2019-01-30T06:26:27.921Z,3.3
2019-01-30T06:27:18.253Z,3.3
2019-01-30T06:28:08.324Z,3.3
2019-01-30T06:28:57.895Z,3.3
2019-01-30T06:29:48.417Z,3.3
2019-01-30T06:30:38.487Z,3.3
2019-01-30T06:31:30.033Z,3.3
2019-01-30T06:32:24.683Z,3.3
2019-01-30T06:33:08.385Z,3.3
2019-01-30T06:33:58.716Z,3.3
2019-01-30T06:34:48.768Z,3.4
2019-01-30T06:35:38.846Z,3.4
2019-01-30T06:36:28.059Z,3.4
2019-01-30T06:37:21.006Z,3.4
2019-01-30T06:38:08.255Z,3.4
2019-01-30T06:38:58.537Z,3.4
2019-01-30T06:39:48.570Z,3.4
2019-01-30T06:40:39.167Z,3.5
2019-01-30T06:41:28.932Z,3.6
2019-01-30T06:42:19.303Z,3.6
2019-01-30T06:43:09.055Z,3.6
2019-01-30T06:43:58.850Z,3.6
2019-01-30T06:44:49.494Z,3.7
2019-01-30T06:45:39.481Z,3.8
2019-01-30T06:46:29.302Z,3.7
2019-01-30T06:47:19.182Z,3.7
2019-01-30T06:48:09.478Z,3.7
2019-01-30T06:48:59.756Z,3.8
2019-01-30T06:49:49.806Z,3.8
2019-01-30T06:50:39.886Z,3.8
2019-01-30T06:51:29.619Z,3.8
2019-01-30T06:52:19.407Z,3.9
2019-01-30T06:53:09.784Z,3.9
2019-01-30T06:54:00.112Z,3.9
2019-01-30T06:54:49.591Z,3.9
2019-01-30T06:55:39.908Z,4
2019-01-30T06:56:30.290Z,4.1
2019-01-30T06:57:19.476Z,4.1
2019-01-30T06:58:09.807Z,4.1
2019-01-30T06:58:59.878Z,4.1
2019-01-30T06:59:50.196Z,4.1
2019-01-30T07:00:39.966Z,4.2
2019-01-30T07:01:29.769Z,4.3
2019-01-30T07:02:20.462Z,4.4
2019-01-30T07:03:10.419Z,4.4
2019-01-30T07:04:00.768Z,4.4
2019-01-30T07:06:26.826Z,4.5
2019-01-30T07:07:16.549Z,4.5
2019-01-30T07:08:06.998Z,4.5
2019-01-30T07:08:56.661Z,4.5
2019-01-30T07:09:46.999Z,4.5
2019-01-30T07:10:37.050Z,4.5
2019-01-30T07:11:26.895Z,4.6
2019-01-30T07:12:17.161Z,4.6
2019-01-30T07:13:06.961Z,4.6
2019-01-30T07:13:57.385Z,4.6
2019-01-30T07:14:46.788Z,4.6
2019-01-30T07:15:36.849Z,4.6
2019-01-30T07:16:27.168Z,4.8
2019-01-30T07:17:17.231Z,4.9
2019-01-30T07:18:07.300Z,5
2019-01-30T07:18:57.736Z,5.1
2019-01-30T07:19:47.135Z,5.1
2019-01-30T07:20:37.195Z,5.1
2019-01-30T07:21:27.517Z,5.2
2019-01-30T07:22:17.670Z,5.3
2019-01-30T07:23:07.356Z,5.3
2019-01-30T07:23:57.691Z,5.3
2019-01-30T07:24:47.531Z,5.4
2019-01-30T07:25:39.276Z,5.4
2019-01-30T07:26:27.859Z,5.5
2019-01-30T07:27:17.363Z,5.5
2019-01-30T07:28:08.266Z,5.4
2019-01-30T07:28:58.031Z,5.5
2019-01-30T07:29:48.078Z,5.5
2019-01-30T07:30:37.426Z,5.6
2019-01-30T07:31:28.539Z,5.5
2019-01-30T07:32:18.530Z,5.4
2019-01-30T07:33:08.330Z,5.4
2019-01-30T07:33:58.365Z,5.5
2019-01-30T07:34:47.953Z,5.4
2019-01-30T07:35:38.495Z,5.4
2019-01-30T07:36:28.813Z,5.4
2019-01-30T07:37:18.883Z,5.4
2019-01-30T07:38:08.385Z,5.6
2019-01-30T07:38:58.710Z,5.6
2019-01-30T07:39:48.810Z,5.6
2019-01-30T07:40:38.616Z,5.6
2019-01-30T07:41:28.892Z,5.5
2019-01-30T07:42:18.942Z,5.6
2019-01-30T07:43:09.005Z,5.6
2019-01-30T07:43:59.073Z,5.6
2019-01-30T07:44:53.402Z,5.6
2019-01-30T07:45:39.459Z,5.7
2019-01-30T07:46:29.497Z,5.8
2019-01-30T07:47:19.029Z,5.7
2019-01-30T07:48:09.602Z,5.8
2019-01-30T07:48:59.122Z,5.8
2019-01-30T07:49:49.457Z,5.8
2019-01-30T07:50:39.497Z,5.7
2019-01-30T07:51:29.842Z,5.8
2019-01-30T07:52:19.627Z,6
2019-01-30T07:53:09.962Z,6.1
2019-01-30T07:54:00.122Z,6.1
2019-01-30T07:54:49.802Z,6.1
2019-01-30T07:55:40.125Z,6.1
2019-01-30T07:56:31.404Z,6.1
2019-01-30T07:57:20.237Z,6.3
2019-01-30T07:58:10.034Z,6.3
2019-01-30T07:58:59.814Z,6.4
2019-01-30T07:59:50.500Z,6.5
2019-01-30T08:00:40.471Z,6.5
2019-01-30T08:01:30.534Z,6.6
2019-01-30T08:02:22.991Z,6.6
2019-01-30T08:03:10.373Z,6.5
2019-01-30T08:04:00.409Z,6.5
2019-01-30T08:04:49.918Z,6.6
2019-01-30T08:05:40.249Z,6.6
2019-01-30T08:06:30.600Z,6.6
2019-01-30T08:07:20.664Z,6.5
2019-01-30T08:08:10.713Z,6.5
2019-01-30T08:09:01.046Z,6.3
2019-01-30T08:09:50.895Z,6.1
2019-01-30T08:10:40.679Z,6.1
2019-01-30T08:11:33.641Z,6.2
2019-01-30T08:12:20.985Z,6.1
2019-01-30T08:13:11.097Z,6.2
2019-01-30T08:14:04.365Z,6.3
2019-01-30T08:14:51.443Z,6.4
2019-01-30T08:15:41.496Z,6.5
2019-01-30T08:16:31.571Z,6.6
2019-01-30T08:17:24.046Z,6.6
2019-01-30T08:18:11.445Z,6.6
2019-01-30T08:19:01.449Z,6.6
2019-01-30T08:19:53.908Z,6.7
2019-01-30T08:20:41.865Z,6.8
2019-01-30T08:21:31.629Z,6.8
2019-01-30T08:22:21.950Z,6.9
2019-01-30T08:23:12.602Z,7
2019-01-30T08:24:03.567Z,7
2019-01-30T08:24:52.639Z,7
2019-01-30T08:25:43.268Z,7.1
2019-01-30T08:26:33.727Z,6.9
2019-01-30T08:27:23.417Z,6.9
2019-01-30T08:28:14.278Z,7
2019-01-30T08:29:03.421Z,6.9
2019-01-30T08:29:53.482Z,6.8
2019-01-30T08:30:43.321Z,6.8
2019-01-30T08:31:33.216Z,6.9
2019-01-30T08:32:25.996Z,7
2019-01-30T08:33:13.082Z,7.1
2019-01-30T08:34:02.484Z,7.1
2019-01-30T08:34:52.812Z,7
2019-01-30T08:35:42.406Z,6.9
2019-01-30T08:36:32.684Z,6.9
2019-01-30T08:37:22.701Z,6.9
2019-01-30T08:38:12.823Z,7.1
2019-01-30T08:39:02.819Z,7.2
2019-01-30T08:39:52.919Z,7.3
2019-01-30T08:40:43.207Z,7.4
2019-01-30T08:41:33.378Z,7.4
2019-01-30T08:42:23.316Z,7.4
2019-01-30T08:43:12.817Z,7.3
2019-01-30T08:44:03.235Z,7.3
2019-01-30T08:44:53.543Z,7.2
2019-01-30T08:45:43.278Z,7.2
2019-01-30T08:46:33.718Z,7.2
2019-01-30T08:47:23.661Z,7.3
2019-01-30T08:48:13.218Z,7.4
2019-01-30T08:49:03.503Z,7.6
2019-01-30T08:49:53.278Z,7.6
2019-01-30T08:50:43.881Z,7.6
2019-01-30T08:51:33.933Z,7.6
2019-01-30T08:52:23.835Z,7.7
2019-01-30T08:53:13.870Z,7.8
2019-01-30T08:54:03.468Z,7.8
2019-01-30T08:54:53.358Z,7.9
2019-01-30T08:55:44.235Z,7.9
2019-01-30T08:56:54.631Z,7.9
2019-01-30T08:57:24.067Z,7.9
2019-01-30T08:58:14.133Z,7.9
2019-01-30T08:59:07.308Z,7.9
2019-01-30T08:59:53.268Z,7.9
2019-01-30T09:00:44.024Z,7.8
2019-01-30T09:01:34.620Z,7.9
2019-01-30T09:02:24.721Z,7.8
2019-01-30T09:03:18.001Z,7.9
2019-01-30T09:04:04.879Z,7.9
2019-01-30T09:04:54.301Z,8
2019-01-30T09:05:44.460Z,7.9
2019-01-30T09:06:34.970Z,7.9
2019-01-30T09:07:25.042Z,7.9
2019-01-30T09:08:14.899Z,8
2019-01-30T09:09:05.152Z,8
2019-01-30T09:09:54.938Z,7.9
2019-01-30T09:10:44.697Z,8
2019-01-30T09:11:35.024Z,8.1
2019-01-30T09:12:25.134Z,8.1
2019-01-30T09:13:14.873Z,8.1
2019-01-30T09:14:04.924Z,8.1
2019-01-30T09:14:55.362Z,8.2
2019-01-30T09:15:45.581Z,8.2
2019-01-30T09:16:35.369Z,8
2019-01-30T09:17:25.699Z,7.9
2019-01-30T09:18:15.788Z,8
2019-01-30T09:19:05.649Z,8.1
2019-01-30T09:19:55.972Z,8.2
2019-01-30T09:20:45.659Z,8.2
2019-01-30T09:21:35.716Z,8.2
2019-01-30T09:22:25.491Z,8.3
2019-01-30T09:23:15.596Z,8.3
2019-01-30T09:24:06.151Z,8.1
2019-01-30T09:24:56.321Z,8.3
2019-01-30T09:25:46.018Z,8.5
2019-01-30T09:26:35.818Z,8.8
2019-01-30T09:27:26.988Z,8.9
2019-01-30T09:28:16.173Z,9.1
2019-01-30T09:29:06.226Z,9.2
2019-01-30T09:29:56.265Z,9
2019-01-30T09:30:46.480Z,8.8
2019-01-30T09:31:36.723Z,9
2019-01-30T09:32:26.163Z,8.8
2019-01-30T09:33:28.376Z,8.9
2019-01-30T09:34:06.792Z,9.1
2019-01-30T09:34:56.401Z,9.3
2019-01-30T09:35:46.574Z,9.7
2019-01-30T09:36:36.928Z,9.8
2019-01-30T09:37:29.587Z,9.8
2019-01-30T09:38:16.897Z,10.1
2019-01-30T09:39:07.198Z,10.3
2019-01-30T09:39:57.260Z,10.2
2019-01-30T09:40:47.003Z,10.3
2019-01-30T09:41:37.439Z,10.3
2019-01-30T09:42:27.145Z,10.2
2019-01-30T09:43:17.317Z,9.9
2019-01-30T09:44:07.379Z,9.8
2019-01-30T09:44:57.324Z,9.8
2019-01-30T09:45:47.157Z,9.9
2019-01-30T09:46:37.714Z,10
2019-01-30T09:47:27.504Z,10
2019-01-30T09:48:17.157Z,9.9
2019-01-30T09:49:08.047Z,10.2
2019-01-30T09:49:57.674Z,10.4
2019-01-30T09:50:47.239Z,10.5
2019-01-30T09:51:38.032Z,10.6
2019-01-30T09:52:29.552Z,10.6
2019-01-30T09:53:18.288Z,10.4
2019-01-30T09:54:08.231Z,10
2019-01-30T09:54:58.083Z,9.8
2019-01-30T09:55:48.403Z,10.2
2019-01-30T09:56:38.217Z,10.2
2019-01-30T09:57:28.439Z,10.3
2019-01-30T09:58:18.223Z,10.4
2019-01-30T09:59:08.277Z,10.3
2019-01-30T09:59:58.347Z,10.4
2019-01-30T10:00:48.668Z,10.4
2019-01-30T10:01:38.469Z,10.2
2019-01-30T10:02:28.616Z,10.3
2019-01-30T10:03:18.567Z,10.2
2019-01-30T10:04:08.341Z,9.9
2019-01-30T10:04:58.944Z,9.8
2019-01-30T10:07:27.312Z,9.7
2019-01-30T10:08:16.677Z,9.9
2019-01-30T10:09:06.745Z,10.2
2019-01-30T10:09:56.515Z,10.4
2019-01-30T10:10:46.846Z,10.7
2019-01-30T10:11:36.480Z,10.9
2019-01-30T10:12:26.940Z,10.9
2019-01-30T10:13:16.748Z,11.1
2019-01-30T10:14:06.787Z,10.9
2019-01-30T10:14:56.850Z,11
2019-01-30T10:15:47.235Z,11.1
2019-01-30T10:16:36.959Z,11.2
2019-01-30T10:17:27.030Z,11
2019-01-30T10:18:17.362Z,10.9
2019-01-30T10:19:06.884Z,11
2019-01-30T10:19:57.330Z,11.1
2019-01-30T10:20:47.264Z,11.1
2019-01-30T10:21:37.592Z,10.8
2019-01-30T10:22:27.177Z,10.6
2019-01-30T10:23:17.445Z,10.6
2019-01-30T10:24:07.607Z,10.6
2019-01-30T10:24:57.262Z,10.5
2019-01-30T10:25:47.902Z,10.8
2019-01-30T10:26:37.932Z,10.5
2019-01-30T10:27:27.441Z,10.7
2019-01-30T10:28:19.852Z,10.9
2019-01-30T10:29:08.142Z,10.9
2019-01-30T10:30:00.863Z,10.8
2019-01-30T10:30:47.962Z,10.7
2019-01-30T10:31:38.283Z,10.5
2019-01-30T10:32:28.365Z,10.6
2019-01-30T10:33:18.142Z,10.5
2019-01-30T10:34:08.182Z,10.5
2019-01-30T10:34:58.600Z,10.4
2019-01-30T10:35:48.309Z,10.3
2019-01-30T10:36:38.515Z,10.1
2019-01-30T10:37:28.135Z,10.4
2019-01-30T10:38:18.877Z,10.5
2019-01-30T10:39:08.582Z,10.5
2019-01-30T10:39:58.597Z,10.8
2019-01-30T10:40:48.402Z,10.9
2019-01-30T10:41:38.985Z,11
2019-01-30T10:42:28.487Z,10.7
2019-01-30T10:43:18.819Z,10.5
2019-01-30T10:44:09.167Z,10.4
2019-01-30T10:44:58.934Z,9.9
2019-01-30T10:45:49.287Z,9.7
2019-01-30T10:46:38.789Z,9.8
2019-01-30T10:47:28.634Z,9.8
2019-01-30T10:48:19.454Z,9.8
2019-01-30T10:49:09.567Z,9.7
2019-01-30T10:49:59.561Z,9.7
2019-01-30T10:50:49.432Z,9.7
2019-01-30T10:51:39.402Z,9.8
2019-01-30T10:52:29.463Z,9.9
2019-01-30T10:53:19.552Z,9.9
2019-01-30T10:54:09.582Z,10
2019-01-30T10:54:59.928Z,9.8
2019-01-30T10:55:49.146Z,9.6
2019-01-30T10:56:40.027Z,9.6
2019-01-30T10:57:29.819Z,9.6
2019-01-30T10:58:19.599Z,9.8
2019-01-30T10:59:10.265Z,9.9
2019-01-30T11:00:00.306Z,10.1
2019-01-30T11:00:50.454Z,10.1
2019-01-30T11:01:40.435Z,10.2
2019-01-30T11:02:30.164Z,10
2019-01-30T11:03:20.083Z,9.8
2019-01-30T11:04:10.556Z,9.8
2019-01-30T11:05:00.345Z,10
2019-01-30T11:05:50.683Z,10.2
2019-01-30T11:06:40.473Z,10.3
2019-01-30T11:07:30.515Z,10.3
2019-01-30T11:08:20.948Z,10.1
2019-01-30T11:09:10.348Z,10
2019-01-30T11:10:00.686Z,9.9
2019-01-30T11:10:53.866Z,9.9
2019-01-30T11:11:41.080Z,10.1
2019-01-30T11:12:30.308Z,10.1
2019-01-30T11:13:21.204Z,9.9
2019-01-30T11:14:10.981Z,9.8
2019-01-30T11:15:03.907Z,9.9
2019-01-30T11:15:50.072Z,9.9
2019-01-30T11:16:41.270Z,9.9
2019-01-30T11:17:31.475Z,9.9
2019-01-30T11:18:21.282Z,10.1
2019-01-30T11:19:11.042Z,10.5
2019-01-30T11:20:01.672Z,10.6
2019-01-30T11:20:51.729Z,10.7
2019-01-30T11:21:41.495Z,10.8
2019-01-30T11:22:31.566Z,10.8
2019-01-30T11:23:20.873Z,10.8
2019-01-30T11:24:11.702Z,10.6
2019-01-30T11:25:01.627Z,10.5
2019-01-30T11:25:52.069Z,10.6
2019-01-30T11:26:42.144Z,10.3
2019-01-30T11:27:31.954Z,10.2
2019-01-30T11:28:21.972Z,9.9
2019-01-30T11:29:12.014Z,9.9
2019-01-30T11:30:02.365Z,9.9
2019-01-30T11:30:52.147Z,10.3
2019-01-30T11:31:41.990Z,10.4
2019-01-30T11:32:32.549Z,10.6
2019-01-30T11:33:22.333Z,10.5
2019-01-30T11:34:12.373Z,10.4
2019-01-30T11:35:01.683Z,10.1
2019-01-30T11:35:52.761Z,9.9
2019-01-30T11:36:42.521Z,10